Time;durP1;ratioP1;P1;durP2;ratioP2;P2;SDS_P1;SDS_P2;PMS_P1;PMS_P2;Temp;Humidity;BMP_temperature;BMP_pressure;BME280_temperature;BME280_humidity;BME280_pressure;Samples;Min_cycle;Max_cycle;Signal;HPM_P1;HPM_P2
2022/03/30 00:01:23;;;;;;;;;;;;;;;7.16;71.27;100804.75;5104596;27;19928;-73
2022/03/30 00:03:48;;;;;;;;;;;;;;;7.14;71.30;100814.94;5107964;28;19920;-73
2022/03/30 00:06:14;;;;;;;;;;;;;;;7.09;71.43;100810.44;5107804;28;19924;-73
2022/03/30 00:08:39;;;;;;;;;;;;;;;7.08;71.52;100801.91;5106867;28;19934;-74
2022/03/30 00:11:04;;;;;;;;;;;;;;;7.05;71.97;100808.59;5107648;28;19915;-73
2022/03/30 00:13:30;;;;;;;;;;;;;;;6.99;72.04;100801.53;5107164;28;19919;-74
2022/03/30 00:15:55;;;;;;;;;;;;;;;6.97;71.56;100804.00;5105921;28;19945;-74
2022/03/30 00:18:21;;;;;;;;;;;;;;;6.98;72.10;100810.00;5101911;28;19962;-74
2022/03/30 00:20:47;;;;;;;;;;;;;;;6.94;72.15;100803.88;5108354;28;20405;-73
2022/03/30 00:23:12;;;;;;;;;;;;;;;6.91;73.06;100792.66;5107810;28;19916;-74
2022/03/30 00:25:37;;;;;;;;;;;;;;;6.88;72.84;100795.97;5110329;28;19928;-72
2022/03/30 00:28:03;;;;;;;;;;;;;;;6.84;72.02;100803.44;5111728;28;19919;-73
2022/03/30 00:30:29;;;;;;;;;;;;;;;6.79;70.92;100794.69;5108994;28;19962;-73
2022/03/30 00:32:54;;;;;;;;;;;;;;;6.72;71.88;100797.00;5106376;28;20358;-73
2022/03/30 00:35:19;;;;;;;;;;;;;;;6.64;71.60;100800.03;5107101;28;19926;-72
2022/03/30 00:37:45;;;;;;;;;;;;;;;6.56;72.43;100799.72;5103775;28;19911;-73
2022/03/30 00:40:14;;;;;;;;;;;;;;;6.51;73.60;100796.09;5105461;28;20022;-72
2022/03/30 00:42:40;;;;;;;;;;;;;;;6.39;74.55;100788.78;5105440;28;19928;-72
2022/03/30 00:45:09;;;;;;;;;;;;;;;6.32;74.91;100796.09;5107792;28;19961;-72
2022/03/30 00:47:36;;;;;;;;;;;;;;;6.22;75.61;100792.25;5100077;28;20370;-72
2022/03/30 00:50:01;;;;;;;;;;;;;;;6.14;74.63;100793.59;5104957;28;19922;-72
2022/03/30 00:52:27;;;;;;;;;;;;;;;6.03;76.67;100792.25;5106196;28;20312;-73
2022/03/30 00:54:52;;;;;;;;;;;;;;;5.94;76.10;100792.69;5108937;28;20359;-73
2022/03/30 00:57:18;;;;;;;;;;;;;;;5.87;76.98;100793.19;5106834;28;19920;-73
2022/03/30 00:59:44;;;;;;;;;;;;;;;5.80;77.35;100788.63;5109142;28;19946;-72
2022/03/30 01:02:09;;;;;;;;;;;;;;;5.75;78.22;100787.53;5103153;28;20410;-73
2022/03/30 01:04:35;;;;;;;;;;;;;;;5.72;77.76;100789.94;5103462;28;19916;-73
2022/03/30 01:07:01;;;;;;;;;;;;;;;5.65;78.55;100786.25;5108156;28;19920;-73
2022/03/30 01:09:26;;;;;;;;;;;;;;;5.60;78.09;100791.13;5107831;28;19954;-72
2022/03/30 01:11:53;;;;;;;;;;;;;;;5.50;78.08;100777.84;5105765;28;19916;-73
2022/03/30 01:14:18;;;;;;;;;;;;;;;5.42;79.09;100781.72;5107194;28;19924;-73
2022/03/30 01:16:44;;;;;;;;;;;;;;;5.32;80.38;100767.66;5103687;28;20355;-73
2022/03/30 01:19:09;;;;;;;;;;;;;;;5.27;79.65;100770.00;5106327;28;20005;-73
2022/03/30 01:21:36;;;;;;;;;;;;;;;5.21;79.42;100772.25;5105216;28;19915;-73
2022/03/30 01:24:01;;;;;;;;;;;;;;;5.15;78.41;100769.41;5108443;28;19915;-73
2022/03/30 01:26:27;;;;;;;;;;;;;;;5.12;77.58;100776.91;5105828;28;20396;-74
2022/03/30 01:28:52;;;;;;;;;;;;;;;5.09;77.54;100775.06;5105207;28;19963;-74
2022/03/30 01:34:02;;;;;;;;;;;;;;;5.08;76.21;100767.34;5105472;28;19926;-73
2022/03/30 01:36:27;;;;;;;;;;;;;;;5.04;78.33;100763.81;5106914;28;19919;-73
2022/03/30 01:38:52;;;;;;;;;;;;;;;5.03;78.64;100767.13;5105494;28;20003;-73
2022/03/30 01:41:18;;;;;;;;;;;;;;;5.00;78.22;100764.44;5106913;28;19958;-74
2022/03/30 01:43:43;;;;;;;;;;;;;;;4.97;79.41;100761.72;5103558;28;19916;-73
2022/03/30 01:46:08;;;;;;;;;;;;;;;4.96;77.69;100764.22;5102469;28;20366;-73
2022/03/30 01:48:34;;;;;;;;;;;;;;;4.92;77.49;100768.31;5104795;28;20278;-73
2022/03/30 01:51:02;;;;;;;;;;;;;;;4.91;76.85;100760.56;5103702;28;19931;-73
2022/03/30 01:53:27;;;;;;;;;;;;;;;4.91;77.32;100758.88;5106116;28;19924;-73
2022/03/30 01:55:53;;;;;;;;;;;;;;;4.89;79.16;100751.97;5107074;28;19916;-73
2022/03/30 01:58:18;;;;;;;;;;;;;;;4.87;78.96;100746.81;5107113;28;19998;-73
2022/03/30 02:00:45;;;;;;;;;;;;;;;4.87;77.50;100746.81;5105800;28;20312;-74
2022/03/30 02:03:11;;;;;;;;;;;;;;;4.82;77.96;100741.50;5107532;28;19934;-73
2022/03/30 02:05:36;;;;;;;;;;;;;;;4.78;76.85;100747.22;5105703;28;19936;-73
2022/03/30 02:08:02;;;;;;;;;;;;;;;4.73;77.07;100741.06;5101567;28;19920;-73
2022/03/30 02:10:28;;;;;;;;;;;;;;;4.69;77.11;100739.16;5105301;28;20349;-73
2022/03/30 02:12:53;;;;;;;;;;;;;;;4.65;77.54;100744.88;5102429;28;19931;-73
2022/03/30 02:15:19;;;;;;;;;;;;;;;4.64;76.75;100738.03;5106726;28;19923;-72
2022/03/30 02:17:44;;;;;;;;;;;;;;;4.62;76.95;100736.22;5109797;28;20405;-73
2022/03/30 02:20:11;;;;;;;;;;;;;;;4.56;77.72;100724.94;5109870;28;19931;-73
2022/03/30 02:22:37;;;;;;;;;;;;;;;4.54;80.44;100725.63;5109314;28;20342;-73
2022/03/30 02:25:02;;;;;;;;;;;;;;;4.52;81.26;100714.50;5110965;28;20000;-72
2022/03/30 02:27:27;;;;;;;;;;;;;;;4.52;81.92;100701.78;5110411;28;19927;-72
2022/03/30 02:29:56;;;;;;;;;;;;;;;4.53;82.22;100701.84;5107114;28;20266;-73
2022/03/30 02:32:22;;;;;;;;;;;;;;;4.56;81.94;100706.25;5107088;28;19922;-72
2022/03/30 02:34:47;;;;;;;;;;;;;;;4.57;80.30;100702.88;5107805;28;19927;-72
2022/03/30 02:37:12;;;;;;;;;;;;;;;4.55;78.86;100697.72;5111378;28;20363;-72
2022/03/30 02:39:38;;;;;;;;;;;;;;;4.56;79.08;100701.16;5108111;28;19923;-73
2022/03/30 02:42:05;;;;;;;;;;;;;;;4.54;80.82;100698.50;5110601;28;19949;-73
2022/03/30 02:44:30;;;;;;;;;;;;;;;4.54;78.99;100692.53;5107183;28;19924;-73
2022/03/30 02:46:56;;;;;;;;;;;;;;;4.51;80.26;100693.28;5109973;28;19928;-73
2022/03/30 02:49:21;;;;;;;;;;;;;;;4.51;79.06;100687.31;5109415;28;19920;-72
2022/03/30 02:51:46;;;;;;;;;;;;;;;4.49;77.14;100691.44;5105890;28;19963;-72
2022/03/30 02:54:11;;;;;;;;;;;;;;;4.46;77.54;100687.06;5108837;28;20006;-73
2022/03/30 02:56:37;;;;;;;;;;;;;;;4.46;79.75;100689.63;5106586;28;20370;-73
2022/03/30 02:59:03;;;;;;;;;;;;;;;4.45;79.07;100684.47;5107868;27;19920;-73
2022/03/30 03:01:28;;;;;;;;;;;;;;;4.44;78.70;100685.25;5101714;27;19952;-72
2022/03/30 03:03:53;;;;;;;;;;;;;;;4.40;78.37;100686.75;5106848;28;19919;-73
2022/03/30 03:06:19;;;;;;;;;;;;;;;4.37;79.20;100680.63;5108467;28;19965;-73
2022/03/30 03:08:44;;;;;;;;;;;;;;;4.34;79.59;100686.47;5105708;28;19928;-73
2022/03/30 03:11:10;;;;;;;;;;;;;;;4.28;80.21;100681.94;5109673;28;19927;-73
2022/03/30 03:13:35;;;;;;;;;;;;;;;4.26;79.72;100681.00;5112166;28;19930;-73
2022/03/30 03:16:00;;;;;;;;;;;;;;;4.26;79.58;100685.22;5111614;28;19928;-72
2022/03/30 03:18:26;;;;;;;;;;;;;;;4.25;79.69;100671.63;5109719;27;19961;-74
2022/03/30 03:20:51;;;;;;;;;;;;;;;4.25;79.50;100675.84;5106531;28;19920;-72
2022/03/30 03:23:17;;;;;;;;;;;;;;;4.26;81.22;100675.03;5109607;28;19920;-73
2022/03/30 03:25:44;;;;;;;;;;;;;;;4.27;82.14;100676.78;5110663;28;19947;-72
2022/03/30 03:28:09;;;;;;;;;;;;;;;4.24;83.63;100667.28;5106483;28;19931;-72
2022/03/30 03:30:35;;;;;;;;;;;;;;;4.20;84.64;100665.41;5105514;28;19923;-73
2022/03/30 03:33:01;;;;;;;;;;;;;;;4.21;83.58;100667.16;5106263;28;20355;-72
2022/03/30 03:35:27;;;;;;;;;;;;;;;4.19;82.55;100662.81;5111444;27;19923;-72
2022/03/30 03:37:52;;;;;;;;;;;;;;;4.15;81.67;100663.44;5109870;28;20250;-72
2022/03/30 03:40:17;;;;;;;;;;;;;;;4.12;82.84;100664.13;5107858;28;20582;-72
2022/03/30 03:42:43;;;;;;;;;;;;;;;4.09;85.16;100655.50;5106535;28;19972;-72
2022/03/30 03:45:09;;;;;;;;;;;;;;;4.03;85.42;100650.97;5109374;28;19922;-72
2022/03/30 03:47:34;;;;;;;;;;;;;;;3.98;85.98;100665.13;5107162;28;19983;-73
2022/03/30 03:49:59;;;;;;;;;;;;;;;3.92;84.98;100652.94;5105755;28;19923;-72
2022/03/30 03:52:25;;;;;;;;;;;;;;;3.84;85.16;100659.31;5108141;28;19970;-72
2022/03/30 03:54:50;;;;;;;;;;;;;;;3.76;83.49;100658.03;5106846;27;19960;-73
2022/03/30 03:57:15;;;;;;;;;;;;;;;3.69;83.27;100654.31;5108807;28;19931;-74
2022/03/30 03:59:40;;;;;;;;;;;;;;;3.63;82.36;100658.19;5107170;28;20410;-73
2022/03/30 04:02:07;;;;;;;;;;;;;;;3.54;82.02;100655.19;5108141;28;19923;-73
2022/03/30 04:04:33;;;;;;;;;;;;;;;3.49;82.77;100654.94;5104720;28;19927;-73
2022/03/30 04:06:58;;;;;;;;;;;;;;;3.46;84.11;100657.34;5107450;28;19915;-73
2022/03/30 04:09:23;;;;;;;;;;;;;;;3.42;82.37;100660.50;5107429;28;19966;-73
2022/03/30 04:11:49;;;;;;;;;;;;;;;3.36;82.13;100655.09;5107272;28;19920;-73
2022/03/30 04:14:17;;;;;;;;;;;;;;;3.29;81.89;100646.25;5107575;28;19978;-73
2022/03/30 04:16:43;;;;;;;;;;;;;;;3.22;82.04;100647.59;5106289;28;20270;-73
2022/03/30 04:19:08;;;;;;;;;;;;;;;3.15;81.13;100647.16;5108230;28;19916;-73
2022/03/30 04:21:33;;;;;;;;;;;;;;;3.11;81.31;100645.28;5104958;28;20011;-72
2022/03/30 04:23:59;;;;;;;;;;;;;;;3.06;83.29;100646.69;5105562;28;19924;-73
2022/03/30 04:26:24;;;;;;;;;;;;;;;3.04;81.29;100644.06;5104151;28;20247;-73
2022/03/30 04:28:49;;;;;;;;;;;;;;;2.98;82.13;100643.72;5107780;28;19915;-73
2022/03/30 04:31:14;;;;;;;;;;;;;;;2.94;86.06;100646.88;5107759;28;19924;-73
2022/03/30 04:33:40;;;;;;;;;;;;;;;2.89;86.11;100646.63;5105754;28;19924;-73
2022/03/30 04:36:05;;;;;;;;;;;;;;;2.88;85.19;100641.47;5107193;28;19926;-72
2022/03/30 04:38:31;;;;;;;;;;;;;;;2.84;84.06;100642.94;5105429;28;19928;-72
2022/03/30 04:40:56;;;;;;;;;;;;;;;2.80;84.79;100648.69;5103790;28;19919;-72
2022/03/30 04:43:21;;;;;;;;;;;;;;;2.73;84.52;100644.06;5102920;28;19920;-72
2022/03/30 04:45:47;;;;;;;;;;;;;;;2.69;84.20;100647.19;5102953;28;20270;-73
2022/03/30 04:48:12;;;;;;;;;;;;;;;2.64;86.70;100641.84;5102752;28;20010;-74
2022/03/30 04:50:37;;;;;;;;;;;;;;;2.63;83.92;100654.47;5104677;28;20370;-74
2022/03/30 04:53:02;;;;;;;;;;;;;;;2.57;84.01;100660.06;5105044;28;19924;-72
2022/03/30 04:55:28;;;;;;;;;;;;;;;2.51;83.76;100659.72;5107613;28;20270;-74
2022/03/30 04:57:53;;;;;;;;;;;;;;;2.46;83.68;100650.97;5105877;28;20018;-74
2022/03/30 05:00:18;;;;;;;;;;;;;;;2.44;87.38;100659.28;5107206;28;19920;-74
2022/03/30 05:02:44;;;;;;;;;;;;;;;2.38;84.45;100650.53;5107074;28;19939;-72
2022/03/30 05:05:09;;;;;;;;;;;;;;;2.35;86.35;100649.47;5106015;28;20305;-72
2022/03/30 05:07:35;;;;;;;;;;;;;;;2.32;85.18;100651.84;5104365;28;19934;-72
2022/03/30 05:10:00;;;;;;;;;;;;;;;2.27;83.97;100643.97;5102168;28;19924;-73
2022/03/30 05:12:26;;;;;;;;;;;;;;;2.24;83.75;100637.84;5107684;28;19939;-72
2022/03/30 05:14:52;;;;;;;;;;;;;;;2.23;85.60;100639.50;5105604;28;19920;-73
2022/03/30 05:17:17;;;;;;;;;;;;;;;2.19;83.50;100634.19;5107842;28;19934;-72
2022/03/30 05:19:44;;;;;;;;;;;;;;;2.14;84.42;100631.38;5106573;28;19930;-72
2022/03/30 05:22:09;;;;;;;;;;;;;;;2.11;85.10;100637.13;5106694;28;19915;-73
2022/03/30 05:24:35;;;;;;;;;;;;;;;2.12;84.38;100638.91;5104865;28;19998;-73
2022/03/30 05:27:00;;;;;;;;;;;;;;;2.13;82.70;100632.16;5106835;28;19930;-74
2022/03/30 05:29:25;;;;;;;;;;;;;;;2.12;84.52;100640.53;5106749;28;20022;-73
2022/03/30 05:31:51;;;;;;;;;;;;;;;2.12;83.34;100638.00;5103995;28;19920;-74
2022/03/30 05:34:16;;;;;;;;;;;;;;;2.12;87.21;100635.47;5108805;28;19951;-73
2022/03/30 05:36:41;;;;;;;;;;;;;;;2.14;87.98;100632.25;5104107;28;20006;-73
2022/03/30 05:39:07;;;;;;;;;;;;;;;2.20;87.53;100635.94;5105720;28;20313;-73
2022/03/30 05:41:33;;;;;;;;;;;;;;;2.25;86.82;100632.00;5107118;28;19973;-73
2022/03/30 05:43:58;;;;;;;;;;;;;;;2.30;86.96;100630.56;5103747;28;19927;-74
2022/03/30 05:46:24;;;;;;;;;;;;;;;2.37;87.27;100625.09;5105222;28;20002;-75
2022/03/30 05:48:49;;;;;;;;;;;;;;;2.49;88.58;100623.25;5105534;28;19965;-73
2022/03/30 05:51:14;;;;;;;;;;;;;;;2.64;86.17;100625.75;5105788;28;19963;-74
2022/03/30 05:53:39;;;;;;;;;;;;;;;2.84;85.44;100629.38;5110552;28;20133;-73
2022/03/30 05:56:07;;;;;;;;;;;;;;;3.05;85.75;100627.16;5114972;28;20215;-73
2022/03/30 05:58:32;;;;;;;;;;;;;;;3.33;87.49;100632.03;5110041;28;19924;-74
2022/03/30 06:00:57;;;;;;;;;;;;;;;3.65;85.01;100624.44;5108754;28;20435;-72
2022/03/30 06:03:23;;;;;;;;;;;;;;;4.04;85.67;100627.25;5116913;28;20001;-73
2022/03/30 06:05:48;;;;;;;;;;;;;;;4.41;84.09;100632.50;5112874;28;19956;-73
2022/03/30 06:08:13;;;;;;;;;;;;;;;4.66;82.19;100632.00;5124529;27;20326;-73
2022/03/30 06:10:39;;;;;;;;;;;;;;;4.76;81.20;100634.22;5110775;28;19947;-73
2022/03/30 06:13:04;;;;;;;;;;;;;;;4.89;80.84;100634.78;5111998;28;19931;-73
2022/03/30 06:15:31;;;;;;;;;;;;;;;4.91;81.15;100634.03;5110478;28;20344;-74
2022/03/30 06:17:56;;;;;;;;;;;;;;;5.13;79.86;100632.50;5110313;28;19916;-74
2022/03/30 06:20:22;;;;;;;;;;;;;;;5.41;79.32;100629.53;5110709;28;19976;-72
2022/03/30 06:22:48;;;;;;;;;;;;;;;5.46;79.03;100626.41;5108899;28;19935;-73
2022/03/30 06:25:13;;;;;;;;;;;;;;;5.60;78.09;100627.00;5108949;27;19920;-74
2022/03/30 06:27:39;;;;;;;;;;;;;;;5.79;77.94;100623.56;5109156;28;19941;-73
2022/03/30 06:30:05;;;;;;;;;;;;;;;6.11;76.64;100625.84;5109416;28;19916;-73
2022/03/30 06:32:31;;;;;;;;;;;;;;;6.48;75.12;100619.69;5110114;27;19930;-74
2022/03/30 06:34:56;;;;;;;;;;;;;;;6.87;73.83;100629.78;5108895;28;20006;-74
2022/03/30 06:37:21;;;;;;;;;;;;;;;7.40;73.36;100628.38;5109762;28;20281;-74
2022/03/30 06:39:47;;;;;;;;;;;;;;;7.92;72.87;100627.69;5108069;28;19985;-75
2022/03/30 06:42:12;;;;;;;;;;;;;;;8.73;71.04;100630.41;5108786;28;19927;-75
2022/03/30 06:44:37;;;;;;;;;;;;;;;9.43;67.59;100636.81;5106485;28;19927;-74
2022/03/30 06:47:03;;;;;;;;;;;;;;;9.89;67.98;100642.44;5110524;28;19927;-74
2022/03/30 06:49:28;;;;;;;;;;;;;;;10.27;68.24;100637.47;5108881;28;19927;-75
2022/03/30 06:51:54;;;;;;;;;;;;;;;10.78;61.00;100636.97;5102332;28;21463;-74
2022/03/30 06:54:20;;;;;;;;;;;;;;;11.14;63.69;100636.09;5111442;28;19954;-73
2022/03/30 06:56:46;;;;;;;;;;;;;;;11.42;63.35;100633.28;5106960;28;19926;-73
2022/03/30 06:59:13;;;;;;;;;;;;;;;11.64;55.63;100626.84;5107714;28;19928;-75
2022/03/30 07:01:39;;;;;;;;;;;;;;;11.33;55.54;100627.06;5108977;28;19963;-73
2022/03/30 07:04:04;;;;;;;;;;;;;;;11.25;56.65;100624.31;5107360;28;20394;-73
2022/03/30 07:06:29;;;;;;;;;;;;;;;11.52;58.03;100621.44;5108021;28;20054;-73
2022/03/30 07:11:39;;;;;;;;;;;;;;;13.46;56.10;100614.38;5107866;28;19973;-74
2022/03/30 07:14:04;;;;;;;;;;;;;;;14.21;56.80;100616.06;5110220;28;19928;-73
2022/03/30 07:16:29;;;;;;;;;;;;;;;14.75;55.04;100612.22;5107309;28;20419;-77
2022/03/30 07:18:55;;;;;;;;;;;;;;;15.25;51.08;100613.38;5109581;28;19920;-74
2022/03/30 07:21:20;;;;;;;;;;;;;;;15.97;50.50;100600.69;5109467;28;19928;-74
2022/03/30 07:23:48;;;;;;;;;;;;;;;16.79;46.45;100611.13;5108490;28;19926;-74
2022/03/30 07:26:13;;;;;;;;;;;;;;;17.34;43.57;100608.38;5110766;27;20004;-75
2022/03/30 07:28:38;;;;;;;;;;;;;;;17.64;50.08;100611.72;5109289;28;20720;-75
2022/03/30 07:31:04;;;;;;;;;;;;;;;18.22;46.62;100608.81;5108157;28;20486;-75
2022/03/30 07:33:29;;;;;;;;;;;;;;;18.59;46.60;100611.13;5108784;28;19927;-74
2022/03/30 07:35:55;;;;;;;;;;;;;;;18.98;40.52;100615.97;5107275;28;19926;-74
2022/03/30 07:38:21;;;;;;;;;;;;;;;19.22;41.60;100614.81;5106969;28;20389;-74
2022/03/30 07:40:47;;;;;;;;;;;;;;;19.21;38.83;100622.69;5107788;28;19991;-75
2022/03/30 07:43:13;;;;;;;;;;;;;;;19.43;42.79;100605.06;5107302;28;19927;-76
2022/03/30 07:45:39;;;;;;;;;;;;;;;19.34;39.67;100605.16;5109299;28;19928;-75
2022/03/30 07:48:05;;;;;;;;;;;;;;;19.44;37.17;100610.25;5109089;28;20449;-74
2022/03/30 07:50:30;;;;;;;;;;;;;;;19.63;39.04;100604.81;5106943;28;20496;-75
2022/03/30 07:52:56;;;;;;;;;;;;;;;19.99;35.33;100601.69;5103805;28;19924;-75
2022/03/30 07:55:22;;;;;;;;;;;;;;;20.09;42.03;100607.66;5107917;28;19926;-75
2022/03/30 07:57:47;;;;;;;;;;;;;;;20.38;33.49;100612.38;5108129;28;19927;-75
2022/03/30 08:00:16;;;;;;;;;;;;;;;20.18;35.94;100612.72;5106759;28;20401;-74
2022/03/30 08:02:41;;;;;;;;;;;;;;;20.22;36.65;100606.56;5107537;28;20313;-75
2022/03/30 08:05:10;;;;;;;;;;;;;;;20.61;35.33;100609.44;5106134;28;19930;-74
2022/03/30 08:07:35;;;;;;;;;;;;;;;21.39;36.31;100606.25;5107892;28;20354;-74
2022/03/30 08:10:01;;;;;;;;;;;;;;;21.79;36.70;100610.63;5102567;28;20013;-75
2022/03/30 08:12:26;;;;;;;;;;;;;;;22.38;38.01;100616.25;5107764;28;19953;-76
2022/03/30 08:14:51;;;;;;;;;;;;;;;22.40;30.28;100614.47;5105295;28;20048;-76
2022/03/30 08:17:17;;;;;;;;;;;;;;;21.94;30.64;100607.66;5099604;28;20034;-75
2022/03/30 08:19:43;;;;;;;;;;;;;;;21.56;35.76;100613.75;5103455;28;19920;-75
2022/03/30 08:22:28;;;;;;;;;;;;;;;22.24;33.59;100615.75;5104718;28;20303;-74
2022/03/30 08:24:54;;;;;;;;;;;;;;;22.79;34.03;100609.09;5105910;28;19927;-74
2022/03/30 08:27:21;;;;;;;;;;;;;;;22.83;31.20;100609.91;5105624;28;19999;-75
2022/03/30 08:29:47;;;;;;;;;;;;;;;22.18;32.00;100616.75;5104901;28;19915;-76
2022/03/30 08:32:13;;;;;;;;;;;;;;;22.15;30.13;100616.81;5105684;28;19922;-74
2022/03/30 08:34:39;;;;;;;;;;;;;;;21.44;30.04;100610.53;5106754;28;19923;-74
2022/03/30 08:37:04;;;;;;;;;;;;;;;20.22;31.32;100597.88;5102908;28;19973;-74
2022/03/30 08:39:29;;;;;;;;;;;;;;;20.02;32.49;100608.59;5106533;28;19924;-74
2022/03/30 08:41:55;;;;;;;;;;;;;;;20.65;31.02;100610.25;5106479;28;19928;-77
2022/03/30 08:44:21;;;;;;;;;;;;;;;20.78;34.02;100599.56;5106284;28;19931;-75
2022/03/30 08:46:47;;;;;;;;;;;;;;;21.71;32.33;100596.84;5110481;28;19926;-75
2022/03/30 08:49:14;;;;;;;;;;;;;;;22.88;29.79;100595.81;5126823;28;19916;-73
2022/03/30 08:51:40;;;;;;;;;;;;;;;23.28;29.26;100594.69;5120098;28;20085;-74
2022/03/30 08:54:09;;;;;;;;;;;;;;;23.30;29.22;100590.28;5113810;28;19923;-75
2022/03/30 08:56:36;;;;;;;;;;;;;;;24.02;27.39;100593.34;5104215;28;19916;-75
2022/03/30 08:59:04;;;;;;;;;;;;;;;23.84;29.50;100592.16;5103127;28;19926;-74
2022/03/30 09:01:31;;;;;;;;;;;;;;;23.64;26.68;100581.41;5107010;28;19926;-75
2022/03/30 09:03:58;;;;;;;;;;;;;;;23.43;29.06;100582.91;5108212;28;20006;-75
2022/03/30 09:06:33;;;;;;;;;;;;;;;24.28;28.05;100582.03;5106890;28;19958;-74
2022/03/30 09:08:58;;;;;;;;;;;;;;;25.11;26.38;100580.91;5106908;28;19919;-74
2022/03/30 09:11:28;;;;;;;;;;;;;;;25.22;28.55;100577.03;5107729;28;19919;-76
2022/03/30 09:14:03;;;;;;;;;;;;;;;25.43;27.50;100584.13;5108749;28;19920;-75
2022/03/30 09:16:38;;;;;;;;;;;;;;;25.96;27.66;100577.72;5108440;28;19947;-75
2022/03/30 09:19:04;;;;;;;;;;;;;;;26.17;28.53;100577.72;5105276;28;20006;-74
2022/03/30 09:21:43;;;;;;;;;;;;;;;25.45;24.09;100577.03;5104036;28;19927;-74
2022/03/30 09:24:09;;;;;;;;;;;;;;;24.96;25.53;100567.44;5105439;28;19968;-75
2022/03/30 09:26:35;;;;;;;;;;;;;;;25.35;25.90;100559.84;5105061;28;19927;-75
2022/03/30 09:29:01;;;;;;;;;;;;;;;25.61;27.33;100562.38;5113867;28;20305;-75
2022/03/30 09:31:27;;;;;;;;;;;;;;;26.32;23.98;100557.75;5109137;28;19926;-75
2022/03/30 09:33:53;;;;;;;;;;;;;;;26.37;25.43;100558.41;5108854;28;20415;-75
2022/03/30 09:36:29;;;;;;;;;;;;;;;26.52;24.18;100556.09;5112242;28;19935;-75
2022/03/30 09:38:54;;;;;;;;;;;;;;;26.74;24.20;100557.72;5109961;28;19924;-75
2022/03/30 09:41:20;;;;;;;;;;;;;;;25.95;23.59;100558.41;5109741;28;20354;-75
2022/03/30 09:43:45;;;;;;;;;;;;;;;26.13;24.59;100554.16;5111316;28;19927;-76
2022/03/30 09:46:11;;;;;;;;;;;;;;;27.17;23.41;100542.63;5107218;28;19924;-75
2022/03/30 09:48:49;;;;;;;;;;;;;;;27.50;22.34;100547.28;5108541;28;20398;-75
2022/03/30 09:51:15;;;;;;;;;;;;;;;27.32;21.89;100542.88;5106081;28;19916;-74
2022/03/30 09:53:42;;;;;;;;;;;;;;;25.45;23.50;100549.84;5111206;28;19924;-75
2022/03/30 09:56:08;;;;;;;;;;;;;;;23.55;25.90;100554.53;5111209;28;19931;-74
2022/03/30 09:58:35;;;;;;;;;;;;;;;22.94;27.60;100543.19;5109691;28;20415;-75
2022/03/30 10:01:22;;;;;;;;;;;;;;;23.16;27.06;100530.31;5116838;27;19954;-75
2022/03/30 10:03:55;;;;;;;;;;;;;;;23.46;26.69;100532.94;5108203;28;20702;-74
2022/03/30 10:06:34;;;;;;;;;;;;;;;22.79;27.79;100533.09;5107934;28;19935;-74
2022/03/30 10:08:59;;;;;;;;;;;;;;;24.04;26.21;100526.75;5110132;28;20016;-76
2022/03/30 10:11:25;;;;;;;;;;;;;;;25.17;26.63;100521.94;5090196;28;20375;-75
2022/03/30 10:13:55;;;;;;;;;;;;;;;26.70;24.36;100532.44;5110972;28;20310;-76
2022/03/30 10:16:21;;;;;;;;;;;;;;;27.13;21.85;100527.88;5110147;28;19922;-74
2022/03/30 10:18:48;;;;;;;;;;;;;;;27.58;22.51;100518.72;5110151;28;20045;-76
2022/03/30 10:21:28;;;;;;;;;;;;;;;28.22;23.62;100518.25;5108674;28;19927;-75
2022/03/30 10:23:56;;;;;;;;;;;;;;;28.40;22.25;100528.84;5110951;28;19915;-76
2022/03/30 10:26:32;;;;;;;;;;;;;;;27.08;21.45;100527.25;5110262;28;19930;-76
2022/03/30 10:29:00;;;;;;;;;;;;;;;25.91;22.72;100522.59;5112659;28;19920;-75
2022/03/30 10:31:26;;;;;;;;;;;;;;;24.54;23.97;100518.94;5110601;28;19915;-76
2022/03/30 10:33:52;;;;;;;;;;;;;;;23.97;24.73;100522.63;5111694;28;20389;-77
2022/03/30 10:36:28;;;;;;;;;;;;;;;24.38;25.32;100515.13;5110478;28;19915;-77
2022/03/30 10:39:05;;;;;;;;;;;;;;;26.31;23.44;100516.50;5113370;28;19920;-78
2022/03/30 10:41:49;;;;;;;;;;;;;;;27.31;22.85;100502.44;5108825;28;20262;-76
2022/03/30 10:44:34;;;;;;;;;;;;;;;27.59;20.81;100503.72;5109886;28;20378;-77
2022/03/30 10:47:26;;;;;;;;;;;;;;;26.42;24.30;100503.75;5109904;28;19920;-78
2022/03/30 10:49:54;;;;;;;;;;;;;;;27.51;23.19;100496.19;5105945;28;19920;-78
2022/03/30 10:52:38;;;;;;;;;;;;;;;28.07;21.22;100487.28;5107783;28;19953;-76
2022/03/30 10:55:13;;;;;;;;;;;;;;;28.44;22.68;100482.78;5109498;28;19927;-76
2022/03/30 10:57:44;;;;;;;;;;;;;;;28.99;20.32;100477.22;5107831;28;19923;-77
2022/03/30 11:00:16;;;;;;;;;;;;;;;29.55;21.13;100484.69;5107372;28;19960;-77
2022/03/30 11:02:42;;;;;;;;;;;;;;;30.32;21.66;100474.94;5111773;28;19927;-77
2022/03/30 11:05:09;;;;;;;;;;;;;;;30.90;19.14;100461.63;5107836;28;19920;-75
2022/03/30 11:07:34;;;;;;;;;;;;;;;30.80;19.71;100465.78;5106256;28;19915;-76
2022/03/30 11:10:15;;;;;;;;;;;;;;;31.21;19.21;100464.97;5105356;28;20278;-77
2022/03/30 11:13:02;;;;;;;;;;;;;;;30.95;19.14;100453.38;5106976;28;20463;-77
2022/03/30 11:15:27;;;;;;;;;;;;;;;30.14;19.32;100440.59;5105552;28;19923;-78
2022/03/30 11:17:55;;;;;;;;;;;;;;;29.71;19.04;100450.22;5109345;27;19916;-77
2022/03/30 11:20:23;;;;;;;;;;;;;;;29.10;19.63;100443.94;5109454;28;19947;-77
2022/03/30 11:22:49;;;;;;;;;;;;;;;28.34;20.21;100442.75;5112319;28;19920;-77
2022/03/30 11:25:19;;;;;;;;;;;;;;;26.95;21.13;100446.91;5107044;28;19923;-77
2022/03/30 11:28:05;;;;;;;;;;;;;;;25.45;22.37;100442.78;5107638;28;19950;-77
2022/03/30 11:30:43;;;;;;;;;;;;;;;23.36;24.95;100444.91;5099756;28;19916;-78
2022/03/30 11:33:12;;;;;;;;;;;;;;;22.34;26.60;100438.28;5108717;28;20550;-76
2022/03/30 11:35:39;;;;;;;;;;;;;;;22.02;27.59;100439.06;5107924;28;19946;-76
2022/03/30 11:38:04;;;;;;;;;;;;;;;23.04;26.76;100432.78;5118583;28;19989;-76
2022/03/30 11:40:30;;;;;;;;;;;;;;;24.78;24.81;100432.22;5112703;28;19912;-77
2022/03/30 11:42:56;;;;;;;;;;;;;;;26.49;23.69;100419.13;5112175;28;19926;-77
2022/03/30 11:45:22;;;;;;;;;;;;;;;27.44;21.81;100419.06;5109632;28;20373;-77
2022/03/30 11:47:52;;;;;;;;;;;;;;;27.37;21.36;100416.78;5103428;28;19912;-77
2022/03/30 11:50:20;;;;;;;;;;;;;;;27.06;21.98;100409.47;5099069;28;19916;-75
2022/03/30 11:53:15;;;;;;;;;;;;;;;27.12;21.74;100410.06;5101205;28;19923;-75
2022/03/30 11:55:57;;;;;;;;;;;;;;;27.60;21.64;100405.94;5098716;28;19916;-74
2022/03/30 11:58:31;;;;;;;;;;;;;;;28.15;20.77;100402.28;5107323;28;20036;-74
2022/03/30 12:00:58;;;;;;;;;;;;;;;28.11;19.87;100406.06;5101808;28;19998;-75
2022/03/30 12:03:23;;;;;;;;;;;;;;;26.58;21.45;100409.03;5105455;28;19931;-74
2022/03/30 12:05:54;;;;;;;;;;;;;;;26.28;21.93;100402.47;5108338;28;19920;-74
2022/03/30 12:08:19;;;;;;;;;;;;;;;25.60;21.99;100409.69;5108631;28;26395;-74
2022/03/30 12:10:48;;;;;;;;;;;;;;;23.20;24.88;100420.94;5106866;28;19920;-74
2022/03/30 12:13:19;;;;;;;;;;;;;;;21.81;27.18;100415.16;5106681;28;20018;-75
2022/03/30 12:15:45;;;;;;;;;;;;;;;22.64;26.40;100411.22;5109213;28;20023;-75
2022/03/30 12:18:10;;;;;;;;;;;;;;;23.10;26.51;100403.75;5107385;28;20007;-74
2022/03/30 12:20:35;;;;;;;;;;;;;;;23.86;25.39;100388.19;5104472;28;19923;-74
2022/03/30 12:23:02;;;;;;;;;;;;;;;24.68;24.60;100388.75;5105759;28;20350;-75
2022/03/30 12:25:33;;;;;;;;;;;;;;;25.20;22.88;100392.06;5106110;28;19922;-75
2022/03/30 12:27:59;;;;;;;;;;;;;;;24.03;24.36;100384.97;5103676;28;19920;-75
2022/03/30 12:30:24;;;;;;;;;;;;;;;24.80;23.16;100383.91;5103906;28;19924;-75
2022/03/30 12:32:50;;;;;;;;;;;;;;;24.99;23.22;100370.88;5109059;28;19923;-75
2022/03/30 12:35:16;;;;;;;;;;;;;;;24.86;23.13;100381.03;5107485;28;19927;-76
2022/03/30 12:37:45;;;;;;;;;;;;;;;24.51;23.66;100369.25;5105878;28;20000;-75
2022/03/30 12:40:14;;;;;;;;;;;;;;;24.80;24.14;100368.13;5108022;28;20018;-75
2022/03/30 12:42:41;;;;;;;;;;;;;;;25.68;22.19;100365.50;5103525;28;19919;-74
2022/03/30 12:45:10;;;;;;;;;;;;;;;25.50;22.01;100361.84;5107107;28;19919;-74
2022/03/30 12:47:38;;;;;;;;;;;;;;;24.36;23.70;100354.03;5107232;28;19930;-74